Airports

 

 

Airport Name Latest METAR Visual Conditions
Atlantic City Int. (ACY) KACY 282154Z 24004KT 10SM FEW075 19/16 A2997 RMK AO2 SLP147 T01940161 VFR
Baltimore International Airport (BWI) KBWI 282154Z 00000KT 10SM SCT060 OVC250 20/16 A2997 RMK AO2 SLP147 T02000161 VFR
Washington National Airport (DCA) KDCA 282152Z 17003KT 10SM FEW029 FEW075 BKN250 21/17 A2997 RMK AO2 SLP147 T02060172 VFR
Dulles International Airport (IAD) KIAD 282152Z 04003KT 10SM FEW065 OVC230 21/16 A2996 RMK AO2 SLP145 T02060161 VFR
Norfolk International Airport (ORF) KORF 282151Z 21010KT 10SM CLR 23/19 A3001 RMK AO2 SLP161 T02330194 VFR
Raleigh International Airport (RDU) KRDU 282151Z 23004KT 10SM BKN100 OVC250 21/19 A3005 RMK AO2 SLP173 T02110194 VFR
Richmond International Airport (RIC) KRIC 282154Z 23013KT 10SM BKN050 OVC300 23/18 A3000 RMK AO2 SLP162 T02280178 VFR
Roanoke Regional Airport (ROA) KROA 282154Z 04003KT 10SM -RA FEW048 SCT085 OVC110 21/17 A3001 RMK AO2 RAB11 SLP156 P0000 T02060172 VFR